sensor_id;sensor_type;location;lat;lon;timestamp;P1;durP1;ratioP1;P2;durP2;ratioP2
19026;SDS011;9646;52.034;5.554;2023-04-29T00:01:38;18.83;;;12.75;;
19026;SDS011;9646;52.034;5.554;2023-04-29T00:04:05;17.13;;;11.98;;
19026;SDS011;9646;52.034;5.554;2023-04-29T00:06:33;17.30;;;13.50;;
19026;SDS011;9646;52.034;5.554;2023-04-29T00:09:01;18.35;;;13.05;;
19026;SDS011;9646;52.034;5.554;2023-04-29T00:11:29;22.10;;;15.35;;
19026;SDS011;9646;52.034;5.554;2023-04-29T00:13:56;21.30;;;14.77;;
19026;SDS011;9646;52.034;5.554;2023-04-29T00:16:23;18.17;;;12.68;;
19026;SDS011;9646;52.034;5.554;2023-04-29T00:18:50;21.38;;;13.95;;
19026;SDS011;9646;52.034;5.554;2023-04-29T00:21:17;23.35;;;15.48;;
19026;SDS011;9646;52.034;5.554;2023-04-29T00:23:44;22.48;;;14.02;;
19026;SDS011;9646;52.034;5.554;2023-04-29T00:26:13;20.05;;;14.27;;
19026;SDS011;9646;52.034;5.554;2023-04-29T00:28:40;22.88;;;15.05;;
19026;SDS011;9646;52.034;5.554;2023-04-29T00:31:07;24.63;;;16.17;;
19026;SDS011;9646;52.034;5.554;2023-04-29T00:33:34;23.33;;;14.63;;
19026;SDS011;9646;52.034;5.554;2023-04-29T00:36:02;21.25;;;14.90;;
19026;SDS011;9646;52.034;5.554;2023-04-29T00:38:29;26.80;;;16.27;;
19026;SDS011;9646;52.034;5.554;2023-04-29T00:40:56;21.98;;;14.23;;
19026;SDS011;9646;52.034;5.554;2023-04-29T00:43:25;23.42;;;16.65;;
19026;SDS011;9646;52.034;5.554;2023-04-29T00:45:52;18.08;;;12.77;;
19026;SDS011;9646;52.034;5.554;2023-04-29T00:48:19;24.08;;;15.88;;
19026;SDS011;9646;52.034;5.554;2023-04-29T00:50:46;23.80;;;15.13;;
19026;SDS011;9646;52.034;5.554;2023-04-29T00:53:14;18.83;;;13.52;;
19026;SDS011;9646;52.034;5.554;2023-04-29T00:55:41;27.92;;;16.85;;
19026;SDS011;9646;52.034;5.554;2023-04-29T00:58:09;23.95;;;15.63;;
19026;SDS011;9646;52.034;5.554;2023-04-29T01:00:38;28.45;;;17.33;;
19026;SDS011;9646;52.034;5.554;2023-04-29T01:03:08;24.85;;;16.15;;
19026;SDS011;9646;52.034;5.554;2023-04-29T01:05:35;23.02;;;14.73;;
19026;SDS011;9646;52.034;5.554;2023-04-29T01:08:05;23.20;;;16.67;;
19026;SDS011;9646;52.034;5.554;2023-04-29T01:10:38;24.27;;;16.20;;
19026;SDS011;9646;52.034;5.554;2023-04-29T01:13:08;26.75;;;17.23;;
19026;SDS011;9646;52.034;5.554;2023-04-29T01:15:47;25.35;;;17.25;;
19026;SDS011;9646;52.034;5.554;2023-04-29T01:18:17;26.83;;;17.77;;
19026;SDS011;9646;52.034;5.554;2023-04-29T01:20:47;19.58;;;13.05;;
19026;SDS011;9646;52.034;5.554;2023-04-29T01:23:14;22.70;;;15.38;;
19026;SDS011;9646;52.034;5.554;2023-04-29T01:25:42;28.00;;;17.00;;
19026;SDS011;9646;52.034;5.554;2023-04-29T01:28:13;18.33;;;12.18;;
19026;SDS011;9646;52.034;5.554;2023-04-29T01:30:41;22.60;;;15.25;;
19026;SDS011;9646;52.034;5.554;2023-04-29T01:33:13;24.30;;;15.27;;
19026;SDS011;9646;52.034;5.554;2023-04-29T01:35:43;23.65;;;15.38;;
19026;SDS011;9646;52.034;5.554;2023-04-29T01:38:15;19.17;;;12.57;;
19026;SDS011;9646;52.034;5.554;2023-04-29T01:40:46;23.92;;;15.75;;
19026;SDS011;9646;52.034;5.554;2023-04-29T01:43:18;19.35;;;13.32;;
19026;SDS011;9646;52.034;5.554;2023-04-29T01:45:46;20.52;;;13.38;;
19026;SDS011;9646;52.034;5.554;2023-04-29T01:48:15;21.10;;;13.77;;
19026;SDS011;9646;52.034;5.554;2023-04-29T01:50:43;21.67;;;14.23;;
19026;SDS011;9646;52.034;5.554;2023-04-29T01:53:10;17.15;;;12.43;;
19026;SDS011;9646;52.034;5.554;2023-04-29T01:55:37;19.25;;;12.70;;
19026;SDS011;9646;52.034;5.554;2023-04-29T01:58:06;23.27;;;14.20;;
19026;SDS011;9646;52.034;5.554;2023-04-29T02:00:33;20.30;;;13.85;;
19026;SDS011;9646;52.034;5.554;2023-04-29T02:03:00;21.45;;;14.30;;
19026;SDS011;9646;52.034;5.554;2023-04-29T02:05:27;21.35;;;14.52;;
19026;SDS011;9646;52.034;5.554;2023-04-29T02:07:56;20.92;;;13.45;;
19026;SDS011;9646;52.034;5.554;2023-04-29T02:10:23;20.10;;;13.70;;
19026;SDS011;9646;52.034;5.554;2023-04-29T02:12:50;20.63;;;13.10;;
19026;SDS011;9646;52.034;5.554;2023-04-29T02:15:19;22.63;;;14.63;;
19026;SDS011;9646;52.034;5.554;2023-04-29T02:17:46;19.30;;;13.88;;
19026;SDS011;9646;52.034;5.554;2023-04-29T02:20:13;20.35;;;13.15;;
19026;SDS011;9646;52.034;5.554;2023-04-29T02:22:40;20.40;;;13.45;;
19026;SDS011;9646;52.034;5.554;2023-04-29T02:25:07;17.52;;;12.60;;
19026;SDS011;9646;52.034;5.554;2023-04-29T02:27:35;18.65;;;13.00;;
19026;SDS011;9646;52.034;5.554;2023-04-29T02:30:02;17.00;;;12.70;;
19026;SDS011;9646;52.034;5.554;2023-04-29T02:32:30;17.25;;;12.18;;
19026;SDS011;9646;52.034;5.554;2023-04-29T02:34:57;16.52;;;11.32;;
19026;SDS011;9646;52.034;5.554;2023-04-29T02:37:24;20.38;;;12.18;;
19026;SDS011;9646;52.034;5.554;2023-04-29T02:39:52;17.88;;;11.70;;
19026;SDS011;9646;52.034;5.554;2023-04-29T02:42:19;17.15;;;11.95;;
19026;SDS011;9646;52.034;5.554;2023-04-29T02:44:46;16.52;;;12.15;;
19026;SDS011;9646;52.034;5.554;2023-04-29T02:47:13;14.55;;;10.88;;
19026;SDS011;9646;52.034;5.554;2023-04-29T02:49:42;16.10;;;11.52;;
19026;SDS011;9646;52.034;5.554;2023-04-29T02:52:09;15.20;;;10.45;;
19026;SDS011;9646;52.034;5.554;2023-04-29T02:54:36;15.30;;;10.98;;
19026;SDS011;9646;52.034;5.554;2023-04-29T02:57:04;18.13;;;11.80;;
19026;SDS011;9646;52.034;5.554;2023-04-29T02:59:32;14.70;;;11.13;;
19026;SDS011;9646;52.034;5.554;2023-04-29T03:01:59;19.25;;;10.85;;
19026;SDS011;9646;52.034;5.554;2023-04-29T03:04:26;16.50;;;11.13;;
19026;SDS011;9646;52.034;5.554;2023-04-29T03:06:55;20.08;;;11.95;;
19026;SDS011;9646;52.034;5.554;2023-04-29T03:09:22;18.08;;;11.90;;
19026;SDS011;9646;52.034;5.554;2023-04-29T03:11:49;16.85;;;10.57;;
19026;SDS011;9646;52.034;5.554;2023-04-29T03:14:17;16.92;;;11.45;;
19026;SDS011;9646;52.034;5.554;2023-04-29T03:16:44;18.23;;;11.30;;
19026;SDS011;9646;52.034;5.554;2023-04-29T03:19:11;17.60;;;12.75;;
19026;SDS011;9646;52.034;5.554;2023-04-29T03:21:38;16.33;;;12.20;;
19026;SDS011;9646;52.034;5.554;2023-04-29T03:24:06;18.17;;;10.98;;
19026;SDS011;9646;52.034;5.554;2023-04-29T03:26:33;18.17;;;11.35;;
19026;SDS011;9646;52.034;5.554;2023-04-29T03:29:00;15.40;;;10.20;;
19026;SDS011;9646;52.034;5.554;2023-04-29T03:31:27;17.73;;;11.85;;
19026;SDS011;9646;52.034;5.554;2023-04-29T03:33:55;13.98;;;10.05;;
19026;SDS011;9646;52.034;5.554;2023-04-29T03:36:22;18.98;;;12.52;;
19026;SDS011;9646;52.034;5.554;2023-04-29T03:38:49;13.50;;;9.38;;
19026;SDS011;9646;52.034;5.554;2023-04-29T03:41:17;16.30;;;11.02;;
19026;SDS011;9646;52.034;5.554;2023-04-29T03:43:44;15.57;;;9.70;;
19026;SDS011;9646;52.034;5.554;2023-04-29T03:46:11;18.80;;;11.80;;
19026;SDS011;9646;52.034;5.554;2023-04-29T03:48:38;13.50;;;9.00;;
19026;SDS011;9646;52.034;5.554;2023-04-29T03:51:05;13.90;;;10.38;;
19026;SDS011;9646;52.034;5.554;2023-04-29T03:53:33;15.68;;;9.32;;
19026;SDS011;9646;52.034;5.554;2023-04-29T03:56:01;13.18;;;9.00;;
19026;SDS011;9646;52.034;5.554;2023-04-29T03:58:29;14.60;;;9.73;;
19026;SDS011;9646;52.034;5.554;2023-04-29T04:00:56;13.07;;;9.05;;
19026;SDS011;9646;52.034;5.554;2023-04-29T04:03:23;15.10;;;10.57;;
19026;SDS011;9646;52.034;5.554;2023-04-29T04:05:52;13.77;;;8.98;;
19026;SDS011;9646;52.034;5.554;2023-04-29T04:08:19;12.77;;;9.50;;
19026;SDS011;9646;52.034;5.554;2023-04-29T04:10:46;15.15;;;10.48;;
19026;SDS011;9646;52.034;5.554;2023-04-29T04:13:13;11.63;;;8.43;;
19026;SDS011;9646;52.034;5.554;2023-04-29T04:15:41;15.35;;;10.38;;
19026;SDS011;9646;52.034;5.554;2023-04-29T04:18:08;13.52;;;9.65;;
19026;SDS011;9646;52.034;5.554;2023-04-29T04:20:36;14.18;;;10.32;;
19026;SDS011;9646;52.034;5.554;2023-04-29T04:23:03;14.27;;;9.60;;
19026;SDS011;9646;52.034;5.554;2023-04-29T04:25:30;15.10;;;10.05;;
19026;SDS011;9646;52.034;5.554;2023-04-29T04:27:57;13.23;;;10.60;;
19026;SDS011;9646;52.034;5.554;2023-04-29T04:30:24;14.88;;;9.98;;
19026;SDS011;9646;52.034;5.554;2023-04-29T04:32:53;14.80;;;9.70;;
19026;SDS011;9646;52.034;5.554;2023-04-29T04:35:20;13.35;;;9.88;;
19026;SDS011;9646;52.034;5.554;2023-04-29T04:37:47;10.25;;;7.72;;
19026;SDS011;9646;52.034;5.554;2023-04-29T04:40:14;15.10;;;9.85;;
19026;SDS011;9646;52.034;5.554;2023-04-29T04:42:41;17.13;;;11.18;;
19026;SDS011;9646;52.034;5.554;2023-04-29T04:45:08;12.35;;;9.43;;
19026;SDS011;9646;52.034;5.554;2023-04-29T04:47:35;15.00;;;10.35;;
19026;SDS011;9646;52.034;5.554;2023-04-29T04:50:05;16.27;;;10.68;;
19026;SDS011;9646;52.034;5.554;2023-04-29T04:52:32;12.43;;;9.40;;
19026;SDS011;9646;52.034;5.554;2023-04-29T04:54:59;14.25;;;9.27;;
19026;SDS011;9646;52.034;5.554;2023-04-29T04:57:26;14.98;;;9.73;;
19026;SDS011;9646;52.034;5.554;2023-04-29T04:59:53;13.60;;;9.25;;
19026;SDS011;9646;52.034;5.554;2023-04-29T05:02:20;13.20;;;9.15;;
19026;SDS011;9646;52.034;5.554;2023-04-29T05:04:47;15.50;;;9.98;;
19026;SDS011;9646;52.034;5.554;2023-04-29T05:07:16;13.00;;;9.65;;
19026;SDS011;9646;52.034;5.554;2023-04-29T05:09:43;14.95;;;9.63;;
19026;SDS011;9646;52.034;5.554;2023-04-29T05:12:10;14.40;;;9.57;;
19026;SDS011;9646;52.034;5.554;2023-04-29T05:14:37;12.57;;;9.25;;
19026;SDS011;9646;52.034;5.554;2023-04-29T05:17:04;13.57;;;9.98;;
19026;SDS011;9646;52.034;5.554;2023-04-29T05:19:33;15.20;;;9.98;;
19026;SDS011;9646;52.034;5.554;2023-04-29T05:22:00;12.93;;;9.23;;
19026;SDS011;9646;52.034;5.554;2023-04-29T05:24:29;16.15;;;10.40;;
19026;SDS011;9646;52.034;5.554;2023-04-29T05:26:56;13.93;;;9.65;;
19026;SDS011;9646;52.034;5.554;2023-04-29T05:29:23;13.68;;;10.25;;
19026;SDS011;9646;52.034;5.554;2023-04-29T05:31:51;13.25;;;9.57;;
19026;SDS011;9646;52.034;5.554;2023-04-29T05:34:18;13.13;;;9.68;;
19026;SDS011;9646;52.034;5.554;2023-04-29T05:36:45;15.82;;;10.50;;
19026;SDS011;9646;52.034;5.554;2023-04-29T05:39:12;11.40;;;8.68;;
19026;SDS011;9646;52.034;5.554;2023-04-29T05:41:41;15.80;;;9.30;;
19026;SDS011;9646;52.034;5.554;2023-04-29T05:44:08;13.57;;;8.82;;
19026;SDS011;9646;52.034;5.554;2023-04-29T05:46:35;14.38;;;9.68;;
19026;SDS011;9646;52.034;5.554;2023-04-29T05:49:02;14.57;;;9.65;;
19026;SDS011;9646;52.034;5.554;2023-04-29T05:51:29;15.32;;;10.35;;
19026;SDS011;9646;52.034;5.554;2023-04-29T05:53:56;12.98;;;9.52;;
19026;SDS011;9646;52.034;5.554;2023-04-29T05:56:24;12.32;;;8.20;;
19026;SDS011;9646;52.034;5.554;2023-04-29T05:58:52;16.63;;;10.02;;
19026;SDS011;9646;52.034;5.554;2023-04-29T06:01:19;17.02;;;10.80;;
19026;SDS011;9646;52.034;5.554;2023-04-29T06:03:46;14.15;;;8.20;;
19026;SDS011;9646;52.034;5.554;2023-04-29T06:06:13;13.55;;;9.77;;
19026;SDS011;9646;52.034;5.554;2023-04-29T06:08:40;14.63;;;9.90;;
19026;SDS011;9646;52.034;5.554;2023-04-29T06:11:08;14.25;;;8.88;;
19026;SDS011;9646;52.034;5.554;2023-04-29T06:13:35;12.10;;;7.97;;
19026;SDS011;9646;52.034;5.554;2023-04-29T06:16:03;15.60;;;9.80;;
19026;SDS011;9646;52.034;5.554;2023-04-29T06:18:31;8.18;;;6.05;;
19026;SDS011;9646;52.034;5.554;2023-04-29T06:20:58;14.98;;;9.85;;
19026;SDS011;9646;52.034;5.554;2023-04-29T06:23:25;13.68;;;9.13;;
19026;SDS011;9646;52.034;5.554;2023-04-29T06:25:52;14.07;;;8.77;;
19026;SDS011;9646;52.034;5.554;2023-04-29T06:28:20;12.38;;;6.57;;
19026;SDS011;9646;52.034;5.554;2023-04-29T06:30:47;12.88;;;8.68;;
19026;SDS011;9646;52.034;5.554;2023-04-29T06:33:16;14.13;;;9.35;;
19026;SDS011;9646;52.034;5.554;2023-04-29T06:35:43;12.95;;;9.13;;
19026;SDS011;9646;52.034;5.554;2023-04-29T06:38:10;15.65;;;8.43;;
19026;SDS011;9646;52.034;5.554;2023-04-29T06:40:37;13.75;;;9.18;;
19026;SDS011;9646;52.034;5.554;2023-04-29T06:43:04;14.20;;;9.18;;
19026;SDS011;9646;52.034;5.554;2023-04-29T06:45:31;16.27;;;9.05;;
19026;SDS011;9646;52.034;5.554;2023-04-29T06:47:58;15.10;;;9.82;;
19026;SDS011;9646;52.034;5.554;2023-04-29T06:50:27;9.65;;;6.32;;
19026;SDS011;9646;52.034;5.554;2023-04-29T06:52:54;12.05;;;7.22;;
19026;SDS011;9646;52.034;5.554;2023-04-29T06:55:21;14.73;;;9.73;;
19026;SDS011;9646;52.034;5.554;2023-04-29T06:57:48;13.13;;;7.30;;
19026;SDS011;9646;52.034;5.554;2023-04-29T07:00:15;10.35;;;8.00;;
19026;SDS011;9646;52.034;5.554;2023-04-29T07:02:45;13.02;;;8.88;;
19026;SDS011;9646;52.034;5.554;2023-04-29T07:05:12;10.48;;;7.13;;
19026;SDS011;9646;52.034;5.554;2023-04-29T07:07:40;17.23;;;8.15;;
19026;SDS011;9646;52.034;5.554;2023-04-29T07:10:07;14.00;;;7.57;;
19026;SDS011;9646;52.034;5.554;2023-04-29T07:12:35;12.98;;;7.63;;
19026;SDS011;9646;52.034;5.554;2023-04-29T07:15:02;7.65;;;5.35;;
19026;SDS011;9646;52.034;5.554;2023-04-29T07:17:29;14.68;;;8.05;;
19026;SDS011;9646;52.034;5.554;2023-04-29T07:19:56;10.10;;;6.55;;
19026;SDS011;9646;52.034;5.554;2023-04-29T07:22:23;12.90;;;6.70;;
19026;SDS011;9646;52.034;5.554;2023-04-29T07:24:53;13.75;;;8.27;;
19026;SDS011;9646;52.034;5.554;2023-04-29T07:27:21;10.52;;;7.55;;
19026;SDS011;9646;52.034;5.554;2023-04-29T07:29:48;16.20;;;9.07;;
19026;SDS011;9646;52.034;5.554;2023-04-29T07:32:15;14.23;;;8.27;;
19026;SDS011;9646;52.034;5.554;2023-04-29T07:34:42;14.52;;;8.98;;
19026;SDS011;9646;52.034;5.554;2023-04-29T07:37:09;12.82;;;7.72;;
19026;SDS011;9646;52.034;5.554;2023-04-29T07:39:36;13.90;;;8.50;;
19026;SDS011;9646;52.034;5.554;2023-04-29T07:42:05;15.63;;;7.75;;
19026;SDS011;9646;52.034;5.554;2023-04-29T07:44:32;6.85;;;3.95;;
19026;SDS011;9646;52.034;5.554;2023-04-29T07:47:00;9.95;;;5.90;;
19026;SDS011;9646;52.034;5.554;2023-04-29T07:49:27;12.48;;;5.72;;
19026;SDS011;9646;52.034;5.554;2023-04-29T07:51:54;12.80;;;7.55;;
19026;SDS011;9646;52.034;5.554;2023-04-29T07:54:21;12.80;;;6.90;;
19026;SDS011;9646;52.034;5.554;2023-04-29T07:56:48;9.57;;;4.90;;
19026;SDS011;9646;52.034;5.554;2023-04-29T07:59:17;12.30;;;7.68;;
19026;SDS011;9646;52.034;5.554;2023-04-29T08:01:44;13.18;;;6.55;;
19026;SDS011;9646;52.034;5.554;2023-04-29T08:04:11;15.15;;;9.18;;
19026;SDS011;9646;52.034;5.554;2023-04-29T08:06:38;7.35;;;5.55;;
19026;SDS011;9646;52.034;5.554;2023-04-29T08:09:05;12.75;;;5.70;;
19026;SDS011;9646;52.034;5.554;2023-04-29T08:11:32;9.13;;;6.07;;
19026;SDS011;9646;52.034;5.554;2023-04-29T08:13:59;10.05;;;5.22;;
19026;SDS011;9646;52.034;5.554;2023-04-29T08:16:28;9.50;;;5.88;;
19026;SDS011;9646;52.034;5.554;2023-04-29T08:18:56;9.57;;;6.85;;
19026;SDS011;9646;52.034;5.554;2023-04-29T08:21:23;15.13;;;9.25;;
19026;SDS011;9646;52.034;5.554;2023-04-29T08:23:51;13.13;;;8.48;;
19026;SDS011;9646;52.034;5.554;2023-04-29T08:26:19;12.02;;;8.15;;
19026;SDS011;9646;52.034;5.554;2023-04-29T08:28:46;15.25;;;8.23;;
19026;SDS011;9646;52.034;5.554;2023-04-29T08:31:17;15.73;;;9.25;;
19026;SDS011;9646;52.034;5.554;2023-04-29T08:33:45;11.18;;;7.47;;
19026;SDS011;9646;52.034;5.554;2023-04-29T08:36:13;13.98;;;6.68;;
19026;SDS011;9646;52.034;5.554;2023-04-29T08:38:40;13.55;;;9.00;;
19026;SDS011;9646;52.034;5.554;2023-04-29T08:41:07;8.48;;;6.40;;
19026;SDS011;9646;52.034;5.554;2023-04-29T08:43:35;10.40;;;6.72;;
19026;SDS011;9646;52.034;5.554;2023-04-29T08:46:04;10.85;;;8.30;;
19026;SDS011;9646;52.034;5.554;2023-04-29T08:48:31;9.02;;;4.90;;
19026;SDS011;9646;52.034;5.554;2023-04-29T08:51:01;6.63;;;4.47;;
19026;SDS011;9646;52.034;5.554;2023-04-29T08:53:28;11.98;;;7.05;;
19026;SDS011;9646;52.034;5.554;2023-04-29T08:55:56;6.85;;;4.75;;
19026;SDS011;9646;52.034;5.554;2023-04-29T08:58:24;5.85;;;4.10;;
19026;SDS011;9646;52.034;5.554;2023-04-29T09:00:54;6.38;;;5.00;;
19026;SDS011;9646;52.034;5.554;2023-04-29T09:03:23;7.72;;;5.10;;
19026;SDS011;9646;52.034;5.554;2023-04-29T09:05:52;11.52;;;5.82;;
19026;SDS011;9646;52.034;5.554;2023-04-29T09:08:21;8.30;;;5.18;;
19026;SDS011;9646;52.034;5.554;2023-04-29T09:10:49;10.52;;;6.50;;
19026;SDS011;9646;52.034;5.554;2023-04-29T09:13:23;9.43;;;6.55;;
19026;SDS011;9646;52.034;5.554;2023-04-29T09:15:50;9.05;;;6.05;;
19026;SDS011;9646;52.034;5.554;2023-04-29T09:21:10;5.65;;;4.18;;
19026;SDS011;9646;52.034;5.554;2023-04-29T09:23:39;5.43;;;3.75;;
19026;SDS011;9646;52.034;5.554;2023-04-29T09:26:06;9.45;;;5.20;;
19026;SDS011;9646;52.034;5.554;2023-04-29T09:28:33;9.90;;;6.32;;
19026;SDS011;9646;52.034;5.554;2023-04-29T09:31:01;10.63;;;5.88;;
19026;SDS011;9646;52.034;5.554;2023-04-29T09:33:30;11.23;;;5.57;;
19026;SDS011;9646;52.034;5.554;2023-04-29T09:35:57;8.13;;;5.47;;
19026;SDS011;9646;52.034;5.554;2023-04-29T09:38:25;6.93;;;4.20;;
19026;SDS011;9646;52.034;5.554;2023-04-29T09:40:53;5.00;;;2.85;;
19026;SDS011;9646;52.034;5.554;2023-04-29T09:43:21;4.85;;;3.60;;
19026;SDS011;9646;52.034;5.554;2023-04-29T09:45:48;5.85;;;3.25;;
19026;SDS011;9646;52.034;5.554;2023-04-29T09:48:15;7.65;;;4.93;;
19026;SDS011;9646;52.034;5.554;2023-04-29T09:50:42;9.13;;;5.68;;
19026;SDS011;9646;52.034;5.554;2023-04-29T09:53:11;11.50;;;6.32;;
19026;SDS011;9646;52.034;5.554;2023-04-29T09:56:01;8.60;;;4.25;;
19026;SDS011;9646;52.034;5.554;2023-04-29T09:58:29;9.75;;;6.55;;
19026;SDS011;9646;52.034;5.554;2023-04-29T10:01:00;8.90;;;4.47;;
19026;SDS011;9646;52.034;5.554;2023-04-29T10:03:29;7.28;;;4.57;;
19026;SDS011;9646;52.034;5.554;2023-04-29T10:05:57;9.38;;;5.38;;
19026;SDS011;9646;52.034;5.554;2023-04-29T10:08:25;10.40;;;5.47;;
19026;SDS011;9646;52.034;5.554;2023-04-29T10:10:53;8.13;;;5.35;;
19026;SDS011;9646;52.034;5.554;2023-04-29T10:13:23;11.15;;;5.90;;
19026;SDS011;9646;52.034;5.554;2023-04-29T10:15:51;8.07;;;6.45;;
19026;SDS011;9646;52.034;5.554;2023-04-29T10:18:25;10.43;;;5.75;;
19026;SDS011;9646;52.034;5.554;2023-04-29T10:20:55;9.18;;;5.75;;
19026;SDS011;9646;52.034;5.554;2023-04-29T10:23:23;7.40;;;6.03;;
19026;SDS011;9646;52.034;5.554;2023-04-29T10:25:51;11.68;;;7.55;;
19026;SDS011;9646;52.034;5.554;2023-04-29T10:28:18;11.77;;;6.95;;
19026;SDS011;9646;52.034;5.554;2023-04-29T10:30:49;8.23;;;5.25;;
19026;SDS011;9646;52.034;5.554;2023-04-29T10:33:16;8.68;;;4.03;;
19026;SDS011;9646;52.034;5.554;2023-04-29T10:35:44;8.90;;;5.78;;
19026;SDS011;9646;52.034;5.554;2023-04-29T10:38:13;7.55;;;5.35;;
19026;SDS011;9646;52.034;5.554;2023-04-29T10:40:43;7.65;;;5.78;;
19026;SDS011;9646;52.034;5.554;2023-04-29T10:43:10;10.65;;;6.22;;
19026;SDS011;9646;52.034;5.554;2023-04-29T10:45:38;9.18;;;5.68;;
19026;SDS011;9646;52.034;5.554;2023-04-29T10:48:15;7.65;;;5.35;;
19026;SDS011;9646;52.034;5.554;2023-04-29T10:50:59;9.82;;;4.90;;
19026;SDS011;9646;52.034;5.554;2023-04-29T10:53:26;6.45;;;4.60;;
19026;SDS011;9646;52.034;5.554;2023-04-29T10:55:55;8.90;;;5.40;;
19026;SDS011;9646;52.034;5.554;2023-04-29T11:01:17;6.78;;;5.40;;
19026;SDS011;9646;52.034;5.554;2023-04-29T11:03:49;6.25;;;4.75;;
19026;SDS011;9646;52.034;5.554;2023-04-29T11:06:19;5.72;;;3.80;;
19026;SDS011;9646;52.034;5.554;2023-04-29T11:08:46;9.57;;;5.13;;
19026;SDS011;9646;52.034;5.554;2023-04-29T11:11:14;7.03;;;5.15;;
19026;SDS011;9646;52.034;5.554;2023-04-29T11:13:42;4.88;;;3.72;;
19026;SDS011;9646;52.034;5.554;2023-04-29T11:16:11;6.95;;;4.70;;
19026;SDS011;9646;52.034;5.554;2023-04-29T11:21:22;5.05;;;3.58;;
19026;SDS011;9646;52.034;5.554;2023-04-29T11:23:50;5.13;;;3.10;;
19026;SDS011;9646;52.034;5.554;2023-04-29T11:26:18;4.05;;;3.03;;
19026;SDS011;9646;52.034;5.554;2023-04-29T11:28:45;4.20;;;3.40;;
19026;SDS011;9646;52.034;5.554;2023-04-29T11:31:13;6.82;;;3.47;;
19026;SDS011;9646;52.034;5.554;2023-04-29T11:33:40;6.50;;;3.25;;
19026;SDS011;9646;52.034;5.554;2023-04-29T11:36:08;5.18;;;3.35;;
19026;SDS011;9646;52.034;5.554;2023-04-29T11:38:38;5.40;;;3.50;;
19026;SDS011;9646;52.034;5.554;2023-04-29T11:41:05;4.60;;;3.10;;
19026;SDS011;9646;52.034;5.554;2023-04-29T11:43:32;6.60;;;4.07;;
19026;SDS011;9646;52.034;5.554;2023-04-29T11:45:59;7.93;;;4.22;;
19026;SDS011;9646;52.034;5.554;2023-04-29T11:48:26;7.78;;;4.00;;
19026;SDS011;9646;52.034;5.554;2023-04-29T11:50:56;6.15;;;4.93;;
19026;SDS011;9646;52.034;5.554;2023-04-29T11:53:23;7.82;;;4.07;;
19026;SDS011;9646;52.034;5.554;2023-04-29T11:55:53;8.02;;;4.32;;
19026;SDS011;9646;52.034;5.554;2023-04-29T11:58:20;4.07;;;3.20;;
19026;SDS011;9646;52.034;5.554;2023-04-29T12:00:47;5.25;;;3.78;;
19026;SDS011;9646;52.034;5.554;2023-04-29T12:03:16;6.60;;;3.90;;
19026;SDS011;9646;52.034;5.554;2023-04-29T12:05:45;6.57;;;4.28;;
19026;SDS011;9646;52.034;5.554;2023-04-29T12:08:13;4.05;;;3.20;;
19026;SDS011;9646;52.034;5.554;2023-04-29T12:10:40;8.02;;;3.60;;
19026;SDS011;9646;52.034;5.554;2023-04-29T12:13:08;5.07;;;3.30;;
19026;SDS011;9646;52.034;5.554;2023-04-29T12:15:36;6.60;;;4.05;;
19026;SDS011;9646;52.034;5.554;2023-04-29T12:18:03;9.10;;;4.07;;
19026;SDS011;9646;52.034;5.554;2023-04-29T12:20:30;6.10;;;4.65;;
19026;SDS011;9646;52.034;5.554;2023-04-29T12:23:09;6.28;;;4.45;;
19026;SDS011;9646;52.034;5.554;2023-04-29T12:25:37;6.10;;;4.07;;
19026;SDS011;9646;52.034;5.554;2023-04-29T12:28:05;12.45;;;4.20;;
19026;SDS011;9646;52.034;5.554;2023-04-29T12:30:34;7.70;;;4.50;;
19026;SDS011;9646;52.034;5.554;2023-04-29T12:33:01;8.05;;;4.43;;
19026;SDS011;9646;52.034;5.554;2023-04-29T12:35:28;10.35;;;5.03;;
19026;SDS011;9646;52.034;5.554;2023-04-29T12:37:56;9.38;;;4.07;;
19026;SDS011;9646;52.034;5.554;2023-04-29T12:40:24;8.82;;;4.68;;
19026;SDS011;9646;52.034;5.554;2023-04-29T12:42:52;8.23;;;4.07;;
19026;SDS011;9646;52.034;5.554;2023-04-29T12:45:28;8.30;;;4.57;;
19026;SDS011;9646;52.034;5.554;2023-04-29T12:47:59;6.28;;;4.38;;
19026;SDS011;9646;52.034;5.554;2023-04-29T12:50:30;5.85;;;3.35;;
19026;SDS011;9646;52.034;5.554;2023-04-29T12:52:58;8.35;;;3.75;;
19026;SDS011;9646;52.034;5.554;2023-04-29T12:55:25;8.25;;;3.67;;
19026;SDS011;9646;52.034;5.554;2023-04-29T12:57:53;10.93;;;4.50;;
19026;SDS011;9646;52.034;5.554;2023-04-29T13:00:20;7.00;;;3.88;;
19026;SDS011;9646;52.034;5.554;2023-04-29T13:02:47;8.73;;;5.82;;
19026;SDS011;9646;52.034;5.554;2023-04-29T13:05:15;9.48;;;5.05;;
19026;SDS011;9646;52.034;5.554;2023-04-29T13:07:43;7.25;;;4.30;;
19026;SDS011;9646;52.034;5.554;2023-04-29T13:10:10;6.13;;;3.70;;
19026;SDS011;9646;52.034;5.554;2023-04-29T13:12:37;8.30;;;4.00;;
19026;SDS011;9646;52.034;5.554;2023-04-29T13:15:05;7.38;;;3.80;;
19026;SDS011;9646;52.034;5.554;2023-04-29T13:17:33;6.07;;;3.55;;
19026;SDS011;9646;52.034;5.554;2023-04-29T13:20:01;8.90;;;3.95;;
19026;SDS011;9646;52.034;5.554;2023-04-29T13:22:29;7.50;;;3.47;;
19026;SDS011;9646;52.034;5.554;2023-04-29T13:24:56;8.60;;;4.15;;
19026;SDS011;9646;52.034;5.554;2023-04-29T13:27:23;5.68;;;4.50;;
19026;SDS011;9646;52.034;5.554;2023-04-29T13:29:51;9.38;;;4.32;;
19026;SDS011;9646;52.034;5.554;2023-04-29T13:32:18;7.30;;;4.00;;
19026;SDS011;9646;52.034;5.554;2023-04-29T13:34:47;8.43;;;3.05;;
19026;SDS011;9646;52.034;5.554;2023-04-29T13:37:14;8.05;;;3.70;;
19026;SDS011;9646;52.034;5.554;2023-04-29T13:39:43;7.57;;;2.95;;
19026;SDS011;9646;52.034;5.554;2023-04-29T13:42:10;8.57;;;3.55;;
19026;SDS011;9646;52.034;5.554;2023-04-29T13:44:37;6.65;;;3.42;;
19026;SDS011;9646;52.034;5.554;2023-04-29T13:47:08;5.90;;;3.60;;
19026;SDS011;9646;52.034;5.554;2023-04-29T13:49:36;6.18;;;3.13;;
19026;SDS011;9646;52.034;5.554;2023-04-29T13:52:03;5.45;;;3.58;;
19026;SDS011;9646;52.034;5.554;2023-04-29T13:54:30;4.30;;;3.15;;
19026;SDS011;9646;52.034;5.554;2023-04-29T13:56:58;6.57;;;3.60;;
19026;SDS011;9646;52.034;5.554;2023-04-29T13:59:28;8.70;;;3.83;;
19026;SDS011;9646;52.034;5.554;2023-04-29T14:01:55;5.53;;;3.80;;
19026;SDS011;9646;52.034;5.554;2023-04-29T14:04:22;6.13;;;3.28;;
19026;SDS011;9646;52.034;5.554;2023-04-29T14:06:49;7.13;;;4.05;;
19026;SDS011;9646;52.034;5.554;2023-04-29T14:09:16;5.50;;;4.00;;
19026;SDS011;9646;52.034;5.554;2023-04-29T14:11:44;3.75;;;2.90;;
19026;SDS011;9646;52.034;5.554;2023-04-29T14:14:12;5.40;;;3.20;;
19026;SDS011;9646;52.034;5.554;2023-04-29T14:16:39;7.18;;;3.60;;
19026;SDS011;9646;52.034;5.554;2023-04-29T14:19:07;5.57;;;3.97;;
19026;SDS011;9646;52.034;5.554;2023-04-29T14:21:34;4.85;;;2.80;;
19026;SDS011;9646;52.034;5.554;2023-04-29T14:24:02;6.60;;;3.88;;
19026;SDS011;9646;52.034;5.554;2023-04-29T14:26:30;7.07;;;3.80;;
19026;SDS011;9646;52.034;5.554;2023-04-29T14:28:57;10.45;;;4.15;;
19026;SDS011;9646;52.034;5.554;2023-04-29T14:31:26;5.72;;;4.20;;
19026;SDS011;9646;52.034;5.554;2023-04-29T14:33:53;9.80;;;4.85;;
19026;SDS011;9646;52.034;5.554;2023-04-29T14:36:20;6.55;;;3.97;;
19026;SDS011;9646;52.034;5.554;2023-04-29T14:38:47;7.63;;;4.40;;
19026;SDS011;9646;52.034;5.554;2023-04-29T14:41:15;8.80;;;5.85;;
19026;SDS011;9646;52.034;5.554;2023-04-29T14:43:42;9.32;;;5.50;;
19026;SDS011;9646;52.034;5.554;2023-04-29T14:46:09;7.45;;;5.47;;
19026;SDS011;9646;52.034;5.554;2023-04-29T14:48:38;7.53;;;3.75;;
19026;SDS011;9646;52.034;5.554;2023-04-29T14:51:05;8.50;;;3.67;;
19026;SDS011;9646;52.034;5.554;2023-04-29T14:53:32;8.57;;;3.30;;
19026;SDS011;9646;52.034;5.554;2023-04-29T14:55:59;8.90;;;4.18;;
19026;SDS011;9646;52.034;5.554;2023-04-29T14:58:27;5.45;;;2.88;;
19026;SDS011;9646;52.034;5.554;2023-04-29T15:00:54;7.63;;;3.78;;